createdAt,value
2019-05-10T00:00:55.724Z,97538.73
2019-05-10T00:03:42.006Z,97539.66
2019-05-10T00:06:28.340Z,97537.61
2019-05-10T00:08:55.819Z,97539.34
2019-05-10T00:11:28.436Z,97539.39
2019-05-10T00:14:13.264Z,97531.48
2019-05-10T00:16:41.545Z,97533.79
2019-05-10T00:19:09.845Z,97535.11
2019-05-10T00:21:38.139Z,97537.27
2019-05-10T00:24:06.369Z,97540.01
2019-05-10T00:26:34.603Z,97539.14
2019-05-10T00:29:02.913Z,97545.05
2019-05-10T00:31:31.162Z,97542.45
2019-05-10T00:33:59.431Z,97540.77
2019-05-10T00:36:27.659Z,97544.98
2019-05-10T00:38:55.943Z,97539.80
2019-05-10T00:41:24.180Z,97546.83
2019-05-10T00:43:52.451Z,97546.42
2019-05-10T00:46:20.697Z,97551.41
2019-05-10T00:48:48.963Z,97559.92
2019-05-10T00:51:17.201Z,97560.10
2019-05-10T00:53:45.475Z,97556.50
2019-05-10T00:56:13.712Z,97562.57
2019-05-10T00:58:41.960Z,97566.08
2019-05-10T01:01:10.703Z,97564.81
2019-05-10T01:03:38.947Z,97566.13
2019-05-10T01:06:07.248Z,97566.95
2019-05-10T01:08:35.470Z,97573.57
2019-05-10T01:11:03.739Z,97569.59
2019-05-10T01:13:31.972Z,97566.08
2019-05-10T01:16:00.242Z,97570.11
2019-05-10T01:18:28.474Z,97579.39
2019-05-10T01:20:56.766Z,97576.83
2019-05-10T01:23:24.989Z,97580.53
2019-05-10T01:25:53.490Z,97581.00
2019-05-10T01:28:21.770Z,97585.83
2019-05-10T01:30:50.068Z,97587.25
2019-05-10T01:33:18.348Z,97595.16
2019-05-10T01:35:46.591Z,97595.84
2019-05-10T01:38:14.866Z,97597.64
2019-05-10T01:40:43.094Z,97599.87
2019-05-10T01:43:11.563Z,97601.74
2019-05-10T01:45:39.794Z,97600.42
2019-05-10T01:48:08.073Z,97601.02
2019-05-10T01:50:36.304Z,97608.49
2019-05-10T01:53:04.567Z,97605.85
2019-05-10T01:55:32.805Z,97607.22
2019-05-10T01:58:01.189Z,97605.94
2019-05-10T02:00:29.459Z,97619.23
2019-05-10T02:02:57.701Z,97623.73
2019-05-10T02:05:25.983Z,97618.44
2019-05-10T02:07:54.209Z,97624.61
2019-05-10T02:10:22.484Z,97627.17
2019-05-10T02:12:50.722Z,97633.34
2019-05-10T02:15:18.995Z,97641.37
2019-05-10T02:17:47.315Z,97643.56
2019-05-10T02:20:15.588Z,97643.64
2019-05-10T02:22:43.833Z,97651.55
2019-05-10T02:25:12.116Z,97646.76
2019-05-10T02:27:40.358Z,97641.00
2019-05-10T02:30:09.019Z,97647.21
2019-05-10T02:32:37.296Z,97653.78
2019-05-10T02:35:06.984Z,97647.67
2019-05-10T02:37:35.273Z,97646.84
2019-05-10T02:40:04.589Z,97647.67
2019-05-10T02:42:32.878Z,97657.81
2019-05-10T02:45:01.131Z,97645.55
2019-05-10T02:47:29.420Z,97653.55
2019-05-10T02:49:59.133Z,97648.66
2019-05-10T02:52:27.675Z,97653.05
2019-05-10T02:54:55.914Z,97660.50
2019-05-10T02:57:24.210Z,97653.46
2019-05-10T02:59:52.454Z,97657.44
2019-05-10T03:02:20.692Z,97653.13
2019-05-10T03:04:48.990Z,97661.45
2019-05-10T03:07:18.177Z,97665.45
2019-05-10T03:09:48.472Z,97667.20
2019-05-10T03:12:26.433Z,97674.61
2019-05-10T03:14:56.673Z,97667.95
2019-05-10T03:17:25.176Z,97674.97
2019-05-10T03:19:55.248Z,97677.17
2019-05-10T03:22:25.442Z,97678.91
2019-05-10T03:24:53.795Z,97675.39
2019-05-10T03:27:22.167Z,97681.06
2019-05-10T03:29:50.482Z,97682.80
2019-05-10T03:32:18.732Z,97684.95
2019-05-10T03:34:47.003Z,97691.98
2019-05-10T03:37:15.248Z,97692.48
2019-05-10T03:39:43.483Z,97699.56
2019-05-10T03:42:11.764Z,97699.48
2019-05-10T03:44:40.001Z,97696.88
2019-05-10T03:47:08.302Z,97701.67
2019-05-10T03:49:36.537Z,97706.97
2019-05-10T03:52:04.825Z,97707.47
2019-05-10T03:54:33.056Z,97711.86
2019-05-10T03:57:12.930Z,97707.02
2019-05-10T03:59:31.321Z,97709.16
2019-05-10T04:01:59.613Z,97714.91
2019-05-10T04:04:27.850Z,97711.89
2019-05-10T04:06:56.144Z,97712.35
2019-05-10T04:09:24.386Z,97725.51
2019-05-10T04:11:52.735Z,97732.55
2019-05-10T04:14:21.074Z,97736.06
2019-05-10T04:16:49.311Z,97738.34
2019-05-10T04:19:17.592Z,97736.16
2019-05-10T04:21:45.845Z,97741.45
2019-05-10T04:24:14.113Z,97748.98
2019-05-10T04:26:42.577Z,97743.72
2019-05-10T04:29:10.824Z,97747.28
2019-05-10T04:31:39.069Z,97756.47
2019-05-10T04:34:07.497Z,97758.21
2019-05-10T04:36:35.798Z,97758.63
2019-05-10T04:39:05.882Z,97757.80
2019-05-10T04:41:34.129Z,97756.85
2019-05-10T04:44:02.360Z,97757.71
2019-05-10T04:46:30.669Z,97763.05
2019-05-10T04:48:58.898Z,97767.48
2019-05-10T04:51:27.297Z,97771.53
2019-05-10T04:53:55.524Z,97767.03
2019-05-10T04:56:23.814Z,97768.44
2019-05-10T04:58:52.054Z,97765.67
2019-05-10T05:01:20.325Z,97762.59
2019-05-10T05:03:48.564Z,97764.34
2019-05-10T05:06:16.844Z,97766.53
2019-05-10T05:08:45.083Z,97764.75
2019-05-10T05:11:13.389Z,97773.57
2019-05-10T05:13:41.657Z,97770.92
2019-05-10T05:16:09.865Z,97778.30
2019-05-10T05:18:38.141Z,97773.00
2019-05-10T05:21:06.383Z,97776.10
2019-05-10T05:23:34.691Z,97774.78
2019-05-10T05:26:02.919Z,97778.71
2019-05-10T05:28:31.204Z,97787.03
2019-05-10T05:30:59.491Z,97783.81
2019-05-10T05:33:27.724Z,97787.33
2019-05-10T05:35:55.963Z,97786.05
2019-05-10T05:38:24.255Z,97800.08
2019-05-10T05:40:52.494Z,97793.00
2019-05-10T05:43:20.734Z,97794.59
2019-05-10T05:45:49.008Z,97794.52
2019-05-10T05:48:21.276Z,97805.50
2019-05-10T05:50:47.263Z,97802.34
2019-05-10T05:53:15.498Z,97807.46
2019-05-10T05:55:43.782Z,97808.29
2019-05-10T05:58:25.572Z,97816.89
2019-05-10T06:00:44.667Z,97814.33
2019-05-10T06:03:19.309Z,97816.48
2019-05-10T06:05:41.982Z,97818.05
2019-05-10T06:08:23.073Z,97820.71
2019-05-10T06:10:43.761Z,97822.20
2019-05-10T06:13:10.268Z,97829.32
2019-05-10T06:15:38.575Z,97828.61
2019-05-10T06:18:09.652Z,97828.06
2019-05-10T06:20:38.160Z,97826.74
2019-05-10T06:23:07.369Z,97829.15
2019-05-10T06:25:42.191Z,97828.61
2019-05-10T06:28:24.060Z,97828.91
2019-05-10T06:30:35.907Z,97830.16
2019-05-10T06:33:12.689Z,97829.91
2019-05-10T06:35:34.132Z,97828.53
2019-05-10T06:38:02.431Z,97827.33
2019-05-10T06:40:34.760Z,97837.86
2019-05-10T06:43:00.632Z,97842.04
2019-05-10T06:45:28.915Z,97842.13
2019-05-10T06:47:57.150Z,97838.86
2019-05-10T06:50:30.394Z,97841.92
2019-05-10T06:53:00.655Z,97850.66
2019-05-10T06:55:25.506Z,97845.52
2019-05-10T06:57:59.571Z,97848.75
2019-05-10T07:00:24.319Z,97855.38
2019-05-10T07:02:52.550Z,97857.95
2019-05-10T07:05:20.824Z,97862.25
2019-05-10T07:07:49.057Z,97866.19
2019-05-10T07:10:19.401Z,97862.16
2019-05-10T07:12:47.351Z,97869.32
2019-05-10T07:15:15.656Z,97861.63
2019-05-10T07:17:47.113Z,97856.70
2019-05-10T07:20:13.866Z,97876.42
2019-05-10T07:22:42.126Z,97868.32
2019-05-10T07:25:11.100Z,97862.70
2019-05-10T07:27:39.382Z,97859.67
2019-05-10T07:30:07.610Z,97856.42
2019-05-10T07:32:35.893Z,97852.31
2019-05-10T07:35:06.158Z,97863.23
2019-05-10T07:37:34.978Z,97863.69
2019-05-10T07:40:04.381Z,97865.73
2019-05-10T07:42:32.649Z,97872.39
2019-05-10T07:45:00.882Z,97868.66
2019-05-10T07:47:30.379Z,97866.18
2019-05-10T07:50:03.857Z,97870.38
2019-05-10T07:52:29.103Z,97871.84
2019-05-10T07:54:57.465Z,97869.74
2019-05-10T07:57:27.036Z,97873.26
2019-05-10T07:59:57.711Z,97868.53
2019-05-10T08:02:25.635Z,97877.38
2019-05-10T08:04:53.909Z,97872.36
2019-05-10T08:07:22.143Z,97872.40
2019-05-10T08:09:50.411Z,97885.60
2019-05-10T08:12:19.507Z,97887.83
2019-05-10T08:14:50.159Z,97895.45
2019-05-10T08:17:19.239Z,97904.78
2019-05-10T08:19:47.792Z,97911.92
2019-05-10T08:22:16.026Z,97919.74
2019-05-10T08:24:52.079Z,97922.15
2019-05-10T08:27:14.998Z,97925.91
2019-05-10T08:29:43.382Z,97928.72
2019-05-10T08:32:12.807Z,97931.65
2019-05-10T08:34:51.712Z,97939.20
2019-05-10T08:37:12.837Z,97946.78
2019-05-10T08:39:45.599Z,97945.47
2019-05-10T08:42:30.550Z,97949.05
2019-05-10T08:44:42.762Z,97948.94
2019-05-10T08:47:15.682Z,97948.89
2019-05-10T08:49:55.316Z,97955.44
2019-05-10T08:52:12.191Z,97961.69
2019-05-10T08:54:42.328Z,97959.67
2019-05-10T08:57:17.924Z,97962.10
2019-05-10T08:59:42.768Z,97958.20
2019-05-10T09:02:12.587Z,97964.26
2019-05-10T09:04:47.154Z,97979.05
2019-05-10T09:07:11.909Z,97976.38
2019-05-10T09:09:45.565Z,97976.48
2019-05-10T09:12:12.355Z,97977.38
2019-05-10T09:14:42.588Z,97986.69
2019-05-10T09:17:14.879Z,97990.11
2019-05-10T09:19:42.752Z,97998.52
2019-05-10T09:22:12.364Z,97999.36
2019-05-10T09:24:48.341Z,98007.73
2019-05-10T09:27:12.793Z,98014.60
2019-05-10T09:29:40.593Z,98018.13
2019-05-10T09:32:08.909Z,98027.34
2019-05-10T09:34:37.318Z,98023.11
2019-05-10T09:37:08.058Z,98032.48
2019-05-10T09:39:35.608Z,98034.53
2019-05-10T09:42:07.989Z,98033.77
2019-05-10T09:44:34.042Z,98038.62
2019-05-10T09:47:04.056Z,98045.27
2019-05-10T09:49:33.200Z,98045.72
2019-05-10T09:52:04.583Z,98048.95
2019-05-10T09:54:33.460Z,98045.25
2019-05-10T09:57:01.754Z,98059.27
2019-05-10T09:59:30.036Z,98052.52
2019-05-10T10:01:58.264Z,98053.09
2019-05-10T10:04:28.151Z,98057.34
2019-05-10T10:06:58.002Z,98056.72
2019-05-10T10:09:34.815Z,98049.17
2019-05-10T10:11:59.124Z,98046.02
2019-05-10T10:14:28.300Z,98054.00
2019-05-10T10:17:00.506Z,98056.98
2019-05-10T10:19:27.868Z,98051.69
2019-05-10T10:21:57.617Z,98057.00
2019-05-10T10:24:28.474Z,98060.39
2019-05-10T10:26:58.137Z,98059.61
2019-05-10T10:29:28.716Z,98059.47
2019-05-10T10:31:58.995Z,98061.61
2019-05-10T10:34:27.199Z,98073.61
2019-05-10T10:36:58.048Z,98062.79
2019-05-10T10:39:27.781Z,98074.16
2019-05-10T10:41:57.166Z,98068.02
2019-05-10T10:44:27.046Z,98075.37
2019-05-10T10:46:58.064Z,98077.16
2019-05-10T10:49:27.960Z,98070.29
2019-05-10T10:51:57.337Z,98080.51
2019-05-10T10:54:28.605Z,98082.11
2019-05-10T10:56:59.284Z,98083.56
2019-05-10T10:59:25.993Z,98081.72
2019-05-10T11:02:25.236Z,98097.63
2019-05-10T11:04:24.277Z,98094.89
2019-05-10T11:07:08.874Z,98096.09
2019-05-10T11:09:22.649Z,98096.50
2019-05-10T11:11:51.545Z,98102.81
2019-05-10T11:14:20.686Z,98103.69
2019-05-10T11:16:52.837Z,98102.40
2019-05-10T11:19:20.499Z,98098.33
2019-05-10T11:21:51.264Z,98099.00
2019-05-10T11:24:22.422Z,98097.04
2019-05-10T11:26:51.674Z,98098.83
2019-05-10T11:29:27.703Z,98093.11
2019-05-10T11:32:10.388Z,98093.41
2019-05-10T11:34:21.486Z,98097.48
2019-05-10T11:36:51.161Z,98100.48
2019-05-10T11:39:25.911Z,98098.22
2019-05-10T11:41:53.109Z,98106.87
2019-05-10T11:44:22.057Z,98105.61
2019-05-10T11:46:50.792Z,98111.50
2019-05-10T11:49:20.443Z,98109.43
2019-05-10T11:51:54.817Z,98114.15
2019-05-10T11:54:21.374Z,98124.86
2019-05-10T11:56:51.938Z,98116.90
2019-05-10T11:59:21.862Z,98117.61
2019-05-10T12:01:56.855Z,98121.06
2019-05-10T12:04:23.867Z,98117.89
2019-05-10T12:06:50.240Z,98126.58
2019-05-10T12:09:21.314Z,98136.38
2019-05-10T12:11:56.475Z,98129.96
2019-05-10T12:14:21.893Z,98142.63
2019-05-10T12:16:54.231Z,98145.31
2019-05-10T12:19:21.271Z,98149.23
2019-05-10T12:21:55.506Z,98154.50
2019-05-10T12:24:33.998Z,98164.84
2019-05-10T12:29:21.310Z,98162.42
2019-05-10T12:31:53.396Z,98172.02
2019-05-10T12:34:20.721Z,98171.42
2019-05-10T12:36:51.757Z,98165.37
2019-05-10T12:39:21.448Z,98167.28
2019-05-10T12:41:52.246Z,98176.59
2019-05-10T12:44:19.234Z,98167.61
2019-05-10T12:46:47.485Z,98170.70
2019-05-10T12:49:15.719Z,98169.14
2019-05-10T12:51:44.017Z,98173.02
2019-05-10T12:54:12.249Z,98175.80
2019-05-10T12:56:43.777Z,98176.41
2019-05-10T12:59:10.489Z,98178.11
2019-05-10T13:01:38.764Z,98171.70
2019-05-10T13:04:15.152Z,98168.53
2019-05-10T13:06:37.102Z,98168.78
2019-05-10T13:09:07.469Z,98172.20
2019-05-10T13:11:35.746Z,98161.84
2019-05-10T13:14:07.407Z,98167.08
2019-05-10T13:16:34.037Z,98160.91
2019-05-10T13:19:02.338Z,98158.09
2019-05-10T13:21:30.676Z,98169.83
2019-05-10T13:23:59.212Z,98174.52
2019-05-10T13:26:27.503Z,98170.56
2019-05-10T13:28:55.738Z,98175.17
2019-05-10T13:31:24.030Z,98184.47
2019-05-10T13:33:52.265Z,98198.39
2019-05-10T13:36:20.485Z,98204.00
2019-05-10T13:38:49.479Z,98203.90
2019-05-10T13:41:23.812Z,98207.66
2019-05-10T13:43:47.893Z,98210.37
2019-05-10T13:46:16.110Z,98210.14
2019-05-10T13:48:44.381Z,98218.47
2019-05-10T13:51:12.635Z,98214.48
2019-05-10T13:53:40.904Z,98217.80
2019-05-10T13:56:09.544Z,98224.23
2019-05-10T13:58:37.842Z,98227.16
2019-05-10T14:01:06.497Z,98230.91
2019-05-10T14:03:44.169Z,98226.55
2019-05-10T14:06:06.042Z,98230.78
2019-05-10T14:08:34.331Z,98233.63
2019-05-10T14:11:03.387Z,98231.93
2019-05-10T14:13:35.841Z,98238.50
2019-05-10T14:16:01.757Z,98234.21
2019-05-10T14:18:30.297Z,98235.20
2019-05-10T14:20:58.591Z,98232.27
2019-05-10T14:23:28.874Z,98233.84
2019-05-10T14:25:57.075Z,98241.88
2019-05-10T14:28:25.309Z,98241.98
2019-05-10T14:30:57.464Z,98246.75
2019-05-10T14:33:23.818Z,98248.41
2019-05-10T14:35:55.053Z,98245.02
2019-05-10T14:38:22.918Z,98243.95
2019-05-10T14:40:51.580Z,98244.04
2019-05-10T14:43:19.809Z,98242.02
2019-05-10T14:45:48.083Z,98248.41
2019-05-10T14:48:16.314Z,98249.81
2019-05-10T14:50:46.674Z,98254.27
2019-05-10T14:53:20.132Z,98249.71
2019-05-10T14:55:44.736Z,98248.59
2019-05-10T14:58:13.868Z,98246.61
2019-05-10T15:00:42.272Z,98258.23
2019-05-10T15:03:10.555Z,98260.52
2019-05-10T15:05:38.790Z,98252.62
2019-05-10T15:08:07.082Z,98254.92
2019-05-10T15:10:39.633Z,98257.98
2019-05-10T15:13:05.350Z,98266.13
2019-05-10T15:15:37.109Z,98274.48
2019-05-10T15:18:03.763Z,98279.84
2019-05-10T15:20:35.508Z,98285.27
2019-05-10T15:23:01.980Z,98294.58
2019-05-10T15:25:30.350Z,98295.15
2019-05-10T15:28:00.320Z,98301.91
2019-05-10T15:30:28.596Z,98298.98
2019-05-10T15:32:57.014Z,98301.41
2019-05-10T15:35:25.321Z,98310.95
2019-05-10T15:37:53.546Z,98308.17
2019-05-10T15:40:21.825Z,98305.78
2019-05-10T15:42:50.068Z,98307.31
2019-05-10T15:45:19.493Z,98311.39
2019-05-10T15:47:51.697Z,98318.03
2019-05-10T15:50:17.939Z,98309.09
2019-05-10T15:52:48.499Z,98311.09
2019-05-10T15:55:25.824Z,98308.44
2019-05-10T15:57:46.351Z,98312.42
2019-05-10T16:00:14.582Z,98313.75
2019-05-10T16:02:43.004Z,98323.98
2019-05-10T16:05:23.935Z,98323.70
2019-05-10T16:07:41.231Z,98328.64
2019-05-10T16:10:09.635Z,98327.90
2019-05-10T16:12:42.904Z,98335.69
2019-05-10T16:15:13.867Z,98342.29
2019-05-10T16:17:39.046Z,98347.20
2019-05-10T16:20:07.276Z,98356.58
2019-05-10T16:22:35.568Z,98364.66
2019-05-10T16:25:05.240Z,98370.69
2019-05-10T16:27:33.900Z,98366.39
2019-05-10T16:30:04.519Z,98360.38
2019-05-10T16:32:34.585Z,98358.30
2019-05-10T16:35:05.784Z,98361.09
2019-05-10T16:37:32.714Z,98357.66
2019-05-10T16:40:00.989Z,98357.66
2019-05-10T16:42:34.516Z,98368.33
2019-05-10T16:44:59.254Z,98369.66
2019-05-10T16:47:27.480Z,98367.81
2019-05-10T16:49:56.140Z,98374.84
2019-05-10T16:52:26.087Z,98362.50
2019-05-10T16:54:57.751Z,98363.00
2019-05-10T16:57:24.788Z,98367.81
2019-05-10T16:59:53.242Z,98368.66
2019-05-10T17:02:21.598Z,98366.33
2019-05-10T17:04:49.982Z,98373.27
2019-05-10T17:07:19.044Z,98375.45
2019-05-10T17:09:49.560Z,98375.91
2019-05-10T17:12:22.116Z,98380.26
2019-05-10T17:14:50.681Z,98386.61
2019-05-10T17:17:18.942Z,98384.05
2019-05-10T17:25:42.367Z,98395.19
2019-05-10T17:28:11.217Z,98404.03
2019-05-10T17:30:39.669Z,98408.16
2019-05-10T17:33:10.849Z,98407.45
2019-05-10T17:35:42.093Z,98413.63
2019-05-10T17:38:14.070Z,98407.03
2019-05-10T17:40:42.315Z,98403.45
2019-05-10T17:43:14.217Z,98410.41
2019-05-10T17:45:42.257Z,98405.95
2019-05-10T17:48:10.299Z,98397.53
2019-05-10T17:50:38.626Z,98405.48
2019-05-10T17:53:06.946Z,98401.08
2019-05-10T17:55:35.235Z,98396.67
2019-05-10T17:58:03.648Z,98391.37
2019-05-10T18:00:31.972Z,98390.45
2019-05-10T18:03:00.408Z,98393.93
2019-05-10T18:05:28.735Z,98385.60
2019-05-10T18:07:57.119Z,98398.38
2019-05-10T18:10:25.536Z,98401.08
2019-05-10T18:12:57.482Z,98403.30
2019-05-10T18:15:27.738Z,98406.86
2019-05-10T18:17:57.593Z,98400.23
2019-05-10T18:20:24.016Z,98402.48
2019-05-10T18:22:52.308Z,98395.86
2019-05-10T18:25:22.374Z,98401.61
2019-05-10T18:27:50.751Z,98405.19
2019-05-10T18:30:19.816Z,98404.83
2019-05-10T18:32:48.274Z,98401.37
2019-05-10T18:35:17.150Z,98403.20
2019-05-10T18:37:45.659Z,98407.58
2019-05-10T18:40:14.388Z,98409.80
2019-05-10T18:42:43.025Z,98408.05
2019-05-10T18:45:11.302Z,98412.45
2019-05-10T18:47:39.817Z,98412.47
2019-05-10T18:50:08.464Z,98412.02
2019-05-10T18:52:36.881Z,98406.79
2019-05-10T18:55:05.881Z,98403.28
2019-05-10T18:57:34.694Z,98413.91
2019-05-10T19:00:03.242Z,98409.08
2019-05-10T19:02:31.935Z,98418.41
2019-05-10T19:05:00.194Z,98416.80
2019-05-10T19:07:28.477Z,98420.86
2019-05-10T19:09:56.913Z,98421.39
2019-05-10T19:12:25.627Z,98425.01
2019-05-10T19:14:54.167Z,98433.92
2019-05-10T19:17:22.585Z,98432.56
2019-05-10T19:19:50.907Z,98434.62
2019-05-10T19:22:19.276Z,98428.83
2019-05-10T19:24:47.723Z,98426.17
2019-05-10T19:27:16.034Z,98428.80
2019-05-10T19:29:47.802Z,98432.30
2019-05-10T19:32:18.077Z,98433.21
2019-05-10T19:34:48.492Z,98441.72
2019-05-10T19:37:28.440Z,98436.03
2019-05-10T19:39:45.032Z,98441.34
2019-05-10T19:42:13.371Z,98429.77
2019-05-10T19:44:42.267Z,98432.78
2019-05-10T19:47:16.833Z,98434.95
2019-05-10T19:49:45.871Z,98436.73
2019-05-10T19:52:10.899Z,98439.45
2019-05-10T19:54:39.280Z,98445.66
2019-05-10T19:57:15.070Z,98448.73
2019-05-10T19:59:37.868Z,98448.37
2019-05-10T20:02:06.276Z,98447.92
2019-05-10T20:04:34.550Z,98451.46
2019-05-10T20:07:02.838Z,98447.06
2019-05-10T20:09:31.076Z,98430.41
2019-05-10T20:11:59.366Z,98439.66
2019-05-10T20:14:27.839Z,98440.06
2019-05-10T20:16:56.252Z,98448.48
2019-05-10T20:19:24.815Z,98452.51
2019-05-10T20:21:53.514Z,98452.97
2019-05-10T20:24:22.168Z,98453.44
2019-05-10T20:26:50.917Z,98452.09
2019-05-10T20:29:19.623Z,98454.77
2019-05-10T20:31:48.277Z,98457.86
2019-05-10T20:34:16.980Z,98456.56
2019-05-10T20:36:45.625Z,98464.95
2019-05-10T20:39:14.344Z,98468.97
2019-05-10T20:41:42.975Z,98475.19
2019-05-10T20:44:11.535Z,98478.38
2019-05-10T20:46:40.027Z,98481.48
2019-05-10T20:49:08.577Z,98493.35
2019-05-10T20:51:37.096Z,98497.34
2019-05-10T20:54:05.909Z,98503.48
2019-05-10T20:56:34.477Z,98499.03
2019-05-10T20:59:03.199Z,98491.09
2019-05-10T21:01:31.851Z,98484.02
2019-05-10T21:04:00.523Z,98488.02
2019-05-10T21:06:29.019Z,98485.83
2019-05-10T21:08:57.594Z,98488.45
2019-05-10T21:11:26.094Z,98485.77
2019-05-10T21:13:57.825Z,98486.67
2019-05-10T21:16:24.928Z,98486.69
2019-05-10T21:18:53.561Z,98490.65
2019-05-10T21:21:22.039Z,98493.73
2019-05-10T21:23:50.628Z,98492.00
2019-05-10T21:26:19.359Z,98499.97
2019-05-10T21:28:48.005Z,98490.77
2019-05-10T21:31:16.507Z,98491.20
2019-05-10T21:33:45.063Z,98494.28
2019-05-10T21:36:13.754Z,98483.31
2019-05-10T21:38:42.508Z,98497.84
2019-05-10T21:41:11.146Z,98500.45
2019-05-10T21:43:39.863Z,98500.89
2019-05-10T21:46:08.490Z,98504.00
2019-05-10T21:48:37.450Z,98496.97
2019-05-10T21:51:05.894Z,98496.54
2019-05-10T21:53:34.661Z,98494.77
2019-05-10T21:56:03.234Z,98495.62
2019-05-10T21:58:31.988Z,98493.44
2019-05-10T22:01:00.672Z,98488.17
2019-05-10T22:03:29.334Z,98485.98
2019-05-10T22:05:58.056Z,98483.31
2019-05-10T22:08:26.670Z,98485.11
2019-05-10T22:10:55.174Z,98487.76
2019-05-10T22:13:23.807Z,98485.99
2019-05-10T22:15:52.473Z,98478.97
2019-05-10T22:18:21.183Z,98481.63
2019-05-10T22:20:50.082Z,98487.74
2019-05-10T22:23:18.718Z,98485.56
2019-05-10T22:25:47.205Z,98491.70
2019-05-10T22:28:15.845Z,98486.44
2019-05-10T22:30:45.077Z,98494.39
2019-05-10T22:33:13.835Z,98498.36
2019-05-10T22:35:42.782Z,98492.61
2019-05-10T22:38:11.238Z,98489.98
2019-05-10T22:40:39.945Z,98478.13
2019-05-10T22:43:08.573Z,98473.72
2019-05-10T22:45:37.467Z,98487.80
2019-05-10T22:48:06.015Z,98485.61
2019-05-10T22:50:35.059Z,98470.64
2019-05-10T22:53:03.736Z,98463.59
2019-05-10T22:55:32.298Z,98454.35
2019-05-10T22:58:00.781Z,98456.97
2019-05-10T23:00:29.517Z,98456.97
2019-05-10T23:02:58.269Z,98467.98
2019-05-10T23:05:26.743Z,98471.52
2019-05-10T23:07:55.220Z,98476.36
2019-05-10T23:10:23.807Z,98479.02
2019-05-10T23:12:52.289Z,98479.45
2019-05-10T23:15:20.946Z,98482.08
2019-05-10T23:17:49.620Z,98470.59
2019-05-10T23:20:18.243Z,98466.18
2019-05-10T23:22:46.766Z,98471.44
2019-05-10T23:25:15.314Z,98468.41
2019-05-10T23:27:43.923Z,98467.11
2019-05-10T23:30:12.474Z,98458.75
2019-05-10T23:32:41.242Z,98455.70
2019-05-10T23:35:11.374Z,98456.14
2019-05-10T23:37:39.994Z,98462.31
2019-05-10T23:40:09.032Z,98464.50
2019-05-10T23:42:37.639Z,98456.13
2019-05-10T23:45:07.826Z,98451.30
2019-05-10T23:47:36.267Z,98447.76
2019-05-10T23:50:05.828Z,98449.56
2019-05-10T23:52:34.278Z,98453.55
2019-05-10T23:55:02.957Z,98457.05
2019-05-10T23:57:31.608Z,98469.82
